createdAt,value
2017-06-23T00:01:58.606Z,15.30
2017-06-23T00:04:26.690Z,13.90
2017-06-23T00:06:54.780Z,13.27
2017-06-23T00:09:23.111Z,14.00
2017-06-23T00:11:51.212Z,12.40
2017-06-23T00:14:19.304Z,13.40
2017-06-23T00:16:47.414Z,13.63
2017-06-23T00:19:15.547Z,14.40
2017-06-23T00:21:43.627Z,14.57
2017-06-23T00:24:12.415Z,15.70
2017-06-23T00:26:40.491Z,14.83
2017-06-23T00:29:09.535Z,14.20
2017-06-23T00:31:37.611Z,12.93
2017-06-23T00:34:05.679Z,11.00
2017-06-23T00:36:33.764Z,10.77
2017-06-23T00:39:01.827Z,11.93
2017-06-23T00:41:29.977Z,12.00
2017-06-23T00:43:58.259Z,12.23
2017-06-23T00:46:26.339Z,12.67
2017-06-23T00:48:54.420Z,11.90
2017-06-23T00:51:22.496Z,12.83
2017-06-23T00:53:50.589Z,12.90
2017-06-23T00:56:18.668Z,14.17
2017-06-23T00:58:46.998Z,13.80
2017-06-23T01:01:15.065Z,13.20
2017-06-23T01:03:43.188Z,15.00
2017-06-23T01:06:11.261Z,15.33
2017-06-23T01:08:39.336Z,15.60
2017-06-23T01:11:07.695Z,14.60
2017-06-23T01:13:35.766Z,14.93
2017-06-23T01:16:03.872Z,15.10
2017-06-23T01:18:31.942Z,14.10
2017-06-23T01:21:00.043Z,15.00
2017-06-23T01:23:28.888Z,14.40
2017-06-23T01:25:56.965Z,13.83
2017-06-23T01:28:25.171Z,14.20
2017-06-23T01:30:54.027Z,14.93
2017-06-23T01:33:22.203Z,14.53
2017-06-23T01:35:50.283Z,14.70
2017-06-23T01:38:18.372Z,15.80
2017-06-23T01:40:46.448Z,14.77
2017-06-23T01:43:15.345Z,14.43
2017-06-23T01:45:44.200Z,13.90
2017-06-23T01:48:12.295Z,14.13
2017-06-23T01:50:40.372Z,14.13
2017-06-23T01:53:08.463Z,15.77
2017-06-23T01:55:37.312Z,15.10
2017-06-23T01:58:05.389Z,14.63
2017-06-23T02:00:33.467Z,14.27
2017-06-23T02:03:01.552Z,13.97
2017-06-23T02:05:29.840Z,13.80
2017-06-23T02:07:57.926Z,14.30
2017-06-23T02:10:26.027Z,13.37
2017-06-23T02:12:54.099Z,14.00
2017-06-23T02:15:22.191Z,12.97
2017-06-23T02:17:50.268Z,14.13
2017-06-23T02:20:18.368Z,14.93
2017-06-23T02:22:46.445Z,14.63
2017-06-23T02:25:14.526Z,14.53
2017-06-23T02:27:44.326Z,13.63
2017-06-23T02:30:13.180Z,13.43
2017-06-23T02:32:41.292Z,14.80
2017-06-23T02:35:10.191Z,14.13
2017-06-23T02:37:39.044Z,14.90
2017-06-23T02:40:07.117Z,15.40
2017-06-23T02:42:35.210Z,15.27
2017-06-23T02:45:03.287Z,14.97
2017-06-23T02:47:32.164Z,14.57
2017-06-23T02:50:00.265Z,14.20
2017-06-23T02:52:29.111Z,13.70
2017-06-23T02:54:57.208Z,14.20
2017-06-23T02:57:25.285Z,14.67
2017-06-23T02:59:53.377Z,15.33
2017-06-23T03:02:21.448Z,13.97
2017-06-23T03:04:49.536Z,15.40
2017-06-23T03:07:17.607Z,14.97
2017-06-23T03:09:45.694Z,16.07
2017-06-23T03:12:13.775Z,15.30
2017-06-23T03:14:41.879Z,14.83
2017-06-23T03:17:10.016Z,15.70
2017-06-23T03:19:38.091Z,14.87
2017-06-23T03:22:06.185Z,14.93
2017-06-23T03:24:34.256Z,14.83
2017-06-23T03:27:02.348Z,14.13
2017-06-23T03:29:30.423Z,14.60
2017-06-23T03:31:58.504Z,15.10
2017-06-23T03:34:27.356Z,14.50
2017-06-23T03:36:55.439Z,13.80
2017-06-23T03:39:23.511Z,14.87
2017-06-23T03:41:51.602Z,14.87
2017-06-23T03:44:19.683Z,14.57
2017-06-23T03:46:47.783Z,14.43
2017-06-23T03:49:15.865Z,16.30
2017-06-23T03:51:43.952Z,15.17
2017-06-23T03:54:12.560Z,15.60
2017-06-23T03:56:40.635Z,13.50
2017-06-23T03:59:08.802Z,14.70
2017-06-23T04:01:36.870Z,15.57
2017-06-23T04:04:04.993Z,15.63
2017-06-23T04:06:34.066Z,15.40
2017-06-23T04:09:02.140Z,15.10
2017-06-23T04:11:30.222Z,16.20
2017-06-23T04:13:59.402Z,16.60
2017-06-23T04:16:27.527Z,17.83
2017-06-23T04:18:55.606Z,16.53
2017-06-23T04:21:23.696Z,16.83
2017-06-23T04:23:51.780Z,16.60
2017-06-23T04:26:19.895Z,17.47
2017-06-23T04:28:48.739Z,18.20
2017-06-23T04:31:16.821Z,17.80
2017-06-23T04:33:44.900Z,16.97
2017-06-23T04:36:12.976Z,18.50
2017-06-23T04:38:41.055Z,18.30
2017-06-23T04:41:09.140Z,16.93
2017-06-23T04:43:37.991Z,18.73
2017-06-23T04:46:06.063Z,17.10
2017-06-23T04:48:34.146Z,17.30
2017-06-23T04:51:02.223Z,18.10
2017-06-23T04:53:30.299Z,18.17
2017-06-23T04:55:58.371Z,18.37
2017-06-23T04:58:26.444Z,17.07
2017-06-23T05:00:54.535Z,19.20
2017-06-23T05:03:23.380Z,16.10
2017-06-23T05:05:51.458Z,16.90
2017-06-23T05:08:19.535Z,17.37
2017-06-23T05:10:47.618Z,19.27
2017-06-23T05:13:15.695Z,17.50
2017-06-23T05:15:43.804Z,17.80
2017-06-23T05:18:12.049Z,16.70
2017-06-23T05:20:40.124Z,17.30
2017-06-23T05:23:08.984Z,17.37
2017-06-23T05:25:37.191Z,16.90
2017-06-23T05:28:05.266Z,16.30
2017-06-23T05:30:33.347Z,17.10
2017-06-23T05:33:02.221Z,16.10
2017-06-23T05:35:30.299Z,16.57
2017-06-23T05:37:58.371Z,17.50
2017-06-23T05:40:26.479Z,16.93
2017-06-23T05:42:54.551Z,18.10
2017-06-23T05:45:22.632Z,17.73
2017-06-23T05:47:50.747Z,16.43
2017-06-23T05:50:18.855Z,18.30
2017-06-23T05:52:46.964Z,16.57
2017-06-23T05:55:15.063Z,15.70
2017-06-23T05:57:43.146Z,16.20
2017-06-23T06:00:11.215Z,17.30
2017-06-23T06:02:39.438Z,15.60
2017-06-23T06:05:07.498Z,16.00
2017-06-23T06:07:35.579Z,14.10
2017-06-23T06:10:03.647Z,13.40
2017-06-23T06:12:31.734Z,13.67
2017-06-23T06:14:59.790Z,15.70
2017-06-23T06:17:27.870Z,15.50
2017-06-23T06:19:56.126Z,16.13
2017-06-23T06:22:24.968Z,15.07
2017-06-23T06:24:53.051Z,14.67
2017-06-23T06:27:21.125Z,14.70
2017-06-23T06:29:49.195Z,14.20
2017-06-23T06:32:17.267Z,14.53
2017-06-23T06:34:45.423Z,13.77
2017-06-23T06:37:13.515Z,14.30
2017-06-23T06:39:41.604Z,14.30
2017-06-23T06:42:09.742Z,14.80
2017-06-23T06:44:37.824Z,13.90
2017-06-23T06:47:05.988Z,13.30
2017-06-23T06:49:34.060Z,12.90
2017-06-23T06:52:02.186Z,13.67
2017-06-23T06:54:31.056Z,12.93
2017-06-23T06:56:59.140Z,12.57
2017-06-23T06:59:27.205Z,14.07
2017-06-23T07:01:55.287Z,15.00
2017-06-23T07:04:24.139Z,14.20
2017-06-23T07:06:52.204Z,12.90
2017-06-23T07:09:20.371Z,12.23
2017-06-23T07:11:48.461Z,13.67
2017-06-23T07:14:17.071Z,12.53
2017-06-23T07:16:45.143Z,13.47
2017-06-23T07:19:13.230Z,14.30
2017-06-23T07:21:41.295Z,13.77
2017-06-23T07:24:09.382Z,15.67
2017-06-23T07:26:37.447Z,14.33
2017-06-23T07:29:06.283Z,13.30
2017-06-23T07:31:34.370Z,13.37
2017-06-23T07:34:02.467Z,13.63
2017-06-23T07:36:30.547Z,12.97
2017-06-23T07:38:58.622Z,13.93
2017-06-23T07:41:26.694Z,11.77
2017-06-23T07:43:54.771Z,11.37
2017-06-23T07:46:23.626Z,11.90
2017-06-23T07:48:51.707Z,12.73
2017-06-23T07:51:19.791Z,11.83
2017-06-23T07:53:47.865Z,12.47
2017-06-23T07:56:15.948Z,12.57
2017-06-23T07:58:44.799Z,12.50
2017-06-23T08:01:12.891Z,12.27
2017-06-23T08:03:40.971Z,12.50
2017-06-23T08:06:09.043Z,13.10
2017-06-23T08:08:37.128Z,13.10
2017-06-23T08:11:05.259Z,14.20
2017-06-23T08:13:33.360Z,12.37
2017-06-23T08:16:01.440Z,15.90
2017-06-23T08:18:29.520Z,13.97
2017-06-23T08:20:57.590Z,13.50
2017-06-23T08:23:26.435Z,11.73
2017-06-23T08:25:54.539Z,15.20
2017-06-23T08:28:22.615Z,14.70
2017-06-23T08:30:50.843Z,13.30
2017-06-23T08:33:18.906Z,13.80
2017-06-23T08:35:46.974Z,13.70
2017-06-23T08:38:15.065Z,14.43
2017-06-23T08:40:43.126Z,13.57
2017-06-23T08:43:11.230Z,14.80
2017-06-23T08:45:39.307Z,14.10
2017-06-23T08:48:07.395Z,14.17
2017-06-23T08:50:35.467Z,13.60
2017-06-23T08:53:03.555Z,14.70
2017-06-23T08:55:32.401Z,13.50
2017-06-23T08:58:00.506Z,12.70
2017-06-23T09:00:29.458Z,13.40
2017-06-23T09:02:57.531Z,12.37
2017-06-23T09:05:25.610Z,12.63
2017-06-23T09:07:53.678Z,13.90
2017-06-23T09:10:21.758Z,14.10
2017-06-23T09:12:49.887Z,13.60
2017-06-23T09:15:18.739Z,13.17
2017-06-23T09:17:46.815Z,13.20
2017-06-23T09:20:14.890Z,15.80
2017-06-23T09:22:42.986Z,13.83
2017-06-23T09:25:11.842Z,15.20
2017-06-23T09:27:40.043Z,13.90
2017-06-23T09:30:08.116Z,14.73
2017-06-23T09:32:36.198Z,13.27
2017-06-23T09:35:05.030Z,15.20
2017-06-23T09:37:33.106Z,14.83
2017-06-23T09:40:01.176Z,12.90
2017-06-23T09:42:29.255Z,14.30
2017-06-23T09:44:57.331Z,14.80
2017-06-23T09:47:25.431Z,14.90
2017-06-23T09:49:53.504Z,14.97
2017-06-23T09:52:21.583Z,13.83
2017-06-23T09:54:49.654Z,14.73
2017-06-23T09:57:17.755Z,14.73
2017-06-23T09:59:45.831Z,13.77
2017-06-23T10:02:13.907Z,14.50
2017-06-23T10:04:42.260Z,14.07
2017-06-23T10:07:11.115Z,13.17
2017-06-23T10:09:39.186Z,14.10
2017-06-23T10:12:07.315Z,14.30
2017-06-23T10:14:35.414Z,12.90
2017-06-23T10:17:03.487Z,13.77
2017-06-23T10:19:31.567Z,11.50
2017-06-23T10:21:59.660Z,13.20
2017-06-23T10:24:27.759Z,13.63
2017-06-23T10:26:55.835Z,13.13
2017-06-23T10:29:23.912Z,13.00
2017-06-23T10:31:52.762Z,14.47
2017-06-23T10:34:20.838Z,13.13
2017-06-23T10:36:48.934Z,12.63
2017-06-23T10:39:17.003Z,12.83
2017-06-23T10:41:45.947Z,12.80
2017-06-23T10:44:14.024Z,13.40
2017-06-23T10:46:42.337Z,13.27
2017-06-23T10:49:10.407Z,13.83
2017-06-23T10:51:38.671Z,14.87
2017-06-23T10:54:06.759Z,13.37
2017-06-23T10:56:34.830Z,13.10
2017-06-23T10:59:02.911Z,13.27
2017-06-23T11:01:30.997Z,12.70
2017-06-23T11:03:59.928Z,14.40
2017-06-23T11:06:28.003Z,12.40
2017-06-23T11:08:56.078Z,14.63
2017-06-23T11:11:24.155Z,13.20
2017-06-23T11:13:52.223Z,13.70
2017-06-23T11:16:20.298Z,14.60
2017-06-23T11:18:48.363Z,12.47
2017-06-23T11:21:16.535Z,13.27
2017-06-23T11:23:44.611Z,14.23
2017-06-23T11:26:12.703Z,14.50
2017-06-23T11:28:40.782Z,13.00
2017-06-23T11:31:08.853Z,12.90
2017-06-23T11:33:37.102Z,12.97
2017-06-23T11:36:05.220Z,13.87
2017-06-23T11:38:33.290Z,14.17
2017-06-23T11:41:01.366Z,13.97
2017-06-23T11:43:29.444Z,13.07
2017-06-23T11:45:57.615Z,13.77
2017-06-23T11:48:25.698Z,14.00
2017-06-23T11:50:54.543Z,14.23
2017-06-23T11:53:22.627Z,13.57
2017-06-23T11:55:50.699Z,13.97
2017-06-23T11:58:18.768Z,11.87
2017-06-23T12:00:46.855Z,13.50
2017-06-23T12:03:14.931Z,11.83
2017-06-23T12:05:43.011Z,13.10
2017-06-23T12:08:11.079Z,12.80
2017-06-23T12:10:39.159Z,13.17
2017-06-23T12:13:07.226Z,12.70
2017-06-23T12:15:35.306Z,10.90
2017-06-23T12:18:04.145Z,11.73
2017-06-23T12:20:32.234Z,11.00
2017-06-23T12:23:00.344Z,11.33
2017-06-23T12:25:29.185Z,37.23
2017-06-23T12:27:57.294Z,10.93
2017-06-23T12:30:25.489Z,10.93
2017-06-23T12:32:53.630Z,10.97
2017-06-23T12:35:21.723Z,10.40
2017-06-23T12:37:49.794Z,10.23
2017-06-23T12:40:17.871Z,9.63
2017-06-23T12:42:46.746Z,9.87
2017-06-23T12:45:14.941Z,10.43
2017-06-23T12:47:43.771Z,10.00
2017-06-23T12:50:11.864Z,11.57
2017-06-23T12:52:41.165Z,10.40
2017-06-23T12:55:09.320Z,9.97
2017-06-23T12:57:37.787Z,10.57
2017-06-23T13:00:05.929Z,10.10
2017-06-23T13:02:34.023Z,10.47
2017-06-23T13:05:02.125Z,10.70
2017-06-23T13:07:31.015Z,9.87
2017-06-23T13:09:59.083Z,10.27
2017-06-23T13:12:27.166Z,9.47
2017-06-23T13:14:55.338Z,9.43
2017-06-23T13:17:24.220Z,9.33
2017-06-23T13:19:52.297Z,9.03
2017-06-23T13:22:20.379Z,9.50
2017-06-23T13:24:48.447Z,9.00
2017-06-23T13:27:16.527Z,9.30
2017-06-23T13:29:44.601Z,9.03
2017-06-23T13:32:12.695Z,9.63
2017-06-23T13:34:40.762Z,9.53
2017-06-23T13:37:08.877Z,9.33
2017-06-23T13:39:36.946Z,9.50
2017-06-23T13:42:05.018Z,9.90
2017-06-23T13:44:33.093Z,9.63
2017-06-23T13:47:01.170Z,10.03
2017-06-23T13:49:29.264Z,10.43
2017-06-23T13:51:57.340Z,10.30
2017-06-23T13:54:25.431Z,9.50
2017-06-23T13:56:53.514Z,9.40
2017-06-23T13:59:21.578Z,9.57
2017-06-23T14:01:49.831Z,9.90
2017-06-23T14:04:17.911Z,10.00
2017-06-23T14:06:45.982Z,9.30
2017-06-23T14:09:14.053Z,9.90
2017-06-23T14:11:42.143Z,10.33
2017-06-23T14:14:10.210Z,9.70
2017-06-23T14:16:38.316Z,10.10
2017-06-23T14:19:07.156Z,9.70
2017-06-23T14:21:35.427Z,9.37
2017-06-23T14:24:03.504Z,10.70
2017-06-23T14:26:31.580Z,10.07
2017-06-23T14:28:59.663Z,10.47
2017-06-23T14:31:27.738Z,9.23
2017-06-23T14:33:55.819Z,9.47
2017-06-23T14:36:23.902Z,9.00
2017-06-23T14:38:52.108Z,8.90
2017-06-23T14:41:20.955Z,9.57
2017-06-23T14:43:49.031Z,9.27
2017-06-23T14:46:17.099Z,9.53
2017-06-23T14:48:45.186Z,9.07
2017-06-23T14:51:13.254Z,9.17
2017-06-23T14:53:41.327Z,8.00
2017-06-23T14:56:09.415Z,8.20
2017-06-23T14:58:37.471Z,7.70
2017-06-23T15:01:05.546Z,8.87
2017-06-23T15:03:33.630Z,8.90
2017-06-23T15:06:01.703Z,8.47
2017-06-23T15:08:29.838Z,9.03
2017-06-23T15:10:57.925Z,7.97
2017-06-23T15:13:25.991Z,7.70
2017-06-23T15:15:54.067Z,8.40
2017-06-23T15:18:22.140Z,8.00
2017-06-23T15:20:50.257Z,7.50
2017-06-23T15:23:19.090Z,8.40
2017-06-23T15:25:47.187Z,8.60
2017-06-23T15:28:15.362Z,8.40
2017-06-23T15:30:43.440Z,8.20
2017-06-23T15:33:11.523Z,8.07
2017-06-23T15:35:39.591Z,8.73
2017-06-23T15:38:07.690Z,8.37
2017-06-23T15:40:35.754Z,8.27
2017-06-23T15:43:03.820Z,7.83
2017-06-23T15:45:31.895Z,8.47
2017-06-23T15:48:00.732Z,7.50
2017-06-23T15:50:28.815Z,8.57
2017-06-23T15:52:56.890Z,7.50
2017-06-23T15:55:24.966Z,8.60
2017-06-23T15:57:53.059Z,8.50
2017-06-23T16:00:21.130Z,8.33
2017-06-23T16:02:49.194Z,7.90
2017-06-23T16:05:17.287Z,8.93
2017-06-23T16:07:45.387Z,8.27
2017-06-23T16:10:13.459Z,7.90
2017-06-23T16:12:41.582Z,7.83
2017-06-23T16:15:10.345Z,9.40
2017-06-23T16:17:38.420Z,7.80
2017-06-23T16:20:06.487Z,7.30
2017-06-23T16:22:34.577Z,8.57
2017-06-23T16:25:02.692Z,8.77
2017-06-23T16:27:31.555Z,7.73
2017-06-23T16:29:59.661Z,8.73
2017-06-23T16:32:27.814Z,8.50
2017-06-23T16:34:55.983Z,8.27
2017-06-23T16:37:24.075Z,8.07
2017-06-23T16:39:52.138Z,9.43
2017-06-23T16:42:20.975Z,7.60
2017-06-23T16:44:49.059Z,8.00
2017-06-23T16:47:17.162Z,7.90
2017-06-23T16:49:45.251Z,8.40
2017-06-23T16:52:14.120Z,7.97
2017-06-23T16:54:42.279Z,8.77
2017-06-23T16:57:10.351Z,8.90
2017-06-23T16:59:38.435Z,8.40
2017-06-23T17:02:06.520Z,8.80
2017-06-23T17:04:34.607Z,8.20
2017-06-23T17:07:02.728Z,7.47
2017-06-23T17:09:30.807Z,8.53
2017-06-23T17:11:58.891Z,7.70
2017-06-23T17:14:27.005Z,7.37
2017-06-23T17:16:55.090Z,7.60
2017-06-23T17:19:23.164Z,8.43
2017-06-23T17:21:51.255Z,7.23
2017-06-23T17:24:19.814Z,7.40
2017-06-23T17:26:47.907Z,7.63
2017-06-23T17:29:15.982Z,7.93
2017-06-23T17:31:44.051Z,8.30
2017-06-23T17:34:12.132Z,7.73
2017-06-23T17:36:40.299Z,8.93
2017-06-23T17:39:08.382Z,7.80
2017-06-23T17:41:36.447Z,7.10
2017-06-23T17:44:04.527Z,7.20
2017-06-23T17:46:32.599Z,8.00
2017-06-23T17:49:00.688Z,8.37
2017-06-23T17:51:28.757Z,7.20
2017-06-23T17:53:56.826Z,8.07
2017-06-23T17:56:24.902Z,8.10
2017-06-23T17:58:52.987Z,8.20
2017-06-23T18:01:21.084Z,7.37
2017-06-23T18:03:49.530Z,7.33
2017-06-23T18:06:17.621Z,11.27
2017-06-23T18:08:45.682Z,8.70
2017-06-23T18:11:13.764Z,6.77
2017-06-23T18:13:42.656Z,7.20
2017-06-23T18:16:10.751Z,7.43
2017-06-23T18:18:38.827Z,8.30
2017-06-23T18:21:06.893Z,7.93
2017-06-23T18:23:35.751Z,7.73
2017-06-23T18:26:03.835Z,8.33
2017-06-23T18:28:31.943Z,8.43
2017-06-23T18:31:00.016Z,7.27
2017-06-23T18:33:28.096Z,7.40
2017-06-23T18:35:56.163Z,7.60
2017-06-23T18:38:24.251Z,7.50
2017-06-23T18:40:52.324Z,7.50
2017-06-23T18:43:20.425Z,9.57
2017-06-23T18:45:48.532Z,9.70
2017-06-23T18:48:17.366Z,9.50
2017-06-23T18:50:45.445Z,8.27
2017-06-23T18:53:13.527Z,10.10
2017-06-23T18:55:41.615Z,8.53
2017-06-23T18:58:09.700Z,9.13
2017-06-23T19:00:37.787Z,8.40
2017-06-23T19:03:05.859Z,7.60
2017-06-23T19:05:33.988Z,8.90
2017-06-23T19:08:02.096Z,10.43
2017-06-23T19:10:31.243Z,15.47
2017-06-23T19:12:59.355Z,22.50
2017-06-23T19:15:27.435Z,14.27
2017-06-23T19:17:55.516Z,24.73
2017-06-23T19:20:23.599Z,11.90
2017-06-23T19:22:51.685Z,9.37
2017-06-23T19:25:19.757Z,19.20
2017-06-23T19:27:47.846Z,13.00
2017-06-23T19:30:15.924Z,9.70
2017-06-23T19:32:44.002Z,9.00
2017-06-23T19:35:12.091Z,10.00
2017-06-23T19:37:40.165Z,9.90
2017-06-23T19:40:08.248Z,8.50
2017-06-23T19:42:36.332Z,8.30
2017-06-23T19:45:04.408Z,7.17
2017-06-23T19:47:32.479Z,9.57
2017-06-23T19:50:00.548Z,8.50
2017-06-23T19:52:28.622Z,9.80
2017-06-23T19:54:57.462Z,9.60
2017-06-23T19:57:25.555Z,9.73
2017-06-23T19:59:53.713Z,9.33
2017-06-23T20:02:21.794Z,9.67
2017-06-23T20:04:49.855Z,9.57
2017-06-23T20:07:17.927Z,8.00
2017-06-23T20:09:45.999Z,8.90
2017-06-23T20:12:14.095Z,10.03
2017-06-23T20:14:42.168Z,11.60
2017-06-23T20:17:10.238Z,10.53
2017-06-23T20:19:38.319Z,9.80
2017-06-23T20:22:06.688Z,9.13
2017-06-23T20:24:34.767Z,10.90
2017-06-23T20:27:02.839Z,10.07
2017-06-23T20:29:30.924Z,10.67
2017-06-23T20:31:59.027Z,10.10
2017-06-23T20:34:27.111Z,10.23
2017-06-23T20:36:55.184Z,10.40
2017-06-23T20:39:23.275Z,10.53
2017-06-23T20:41:51.354Z,11.83
2017-06-23T20:44:19.453Z,10.40
2017-06-23T20:46:47.531Z,11.07
2017-06-23T20:49:15.603Z,11.20
2017-06-23T20:51:43.690Z,12.00
2017-06-23T20:54:12.542Z,11.20
2017-06-23T20:56:40.628Z,10.70
2017-06-23T20:59:08.699Z,10.90
2017-06-23T21:01:36.791Z,10.83
2017-06-23T21:04:05.638Z,11.77
2017-06-23T21:06:33.714Z,10.87
2017-06-23T21:09:01.804Z,10.50
2017-06-23T21:11:29.887Z,10.03
2017-06-23T21:13:57.971Z,11.90
2017-06-23T21:16:26.042Z,10.63
2017-06-23T21:18:54.120Z,10.60
2017-06-23T21:21:22.959Z,11.63
2017-06-23T21:23:51.052Z,11.17
2017-06-23T21:26:19.122Z,11.70
2017-06-23T21:28:47.224Z,11.00
2017-06-23T21:31:15.283Z,12.07
2017-06-23T21:33:43.358Z,11.20
2017-06-23T21:36:11.439Z,11.20
2017-06-23T21:38:39.503Z,11.33
2017-06-23T21:41:25.495Z,11.70
2017-06-23T21:43:53.567Z,12.40
2017-06-23T21:46:21.647Z,11.60
2017-06-23T21:48:49.710Z,10.87
2017-06-23T21:51:17.784Z,10.23
2017-06-23T21:53:45.858Z,11.00
2017-06-23T21:56:14.819Z,10.27
2017-06-23T21:58:42.878Z,9.93
2017-06-23T22:01:10.958Z,10.70
2017-06-23T22:03:39.030Z,11.60
2017-06-23T22:06:07.099Z,10.20
2017-06-23T22:08:35.182Z,10.90
2017-06-23T22:11:03.255Z,11.00
2017-06-23T22:13:31.338Z,10.67
2017-06-23T22:15:59.402Z,11.40
2017-06-23T22:18:27.482Z,13.40
2017-06-23T22:20:55.563Z,10.60
2017-06-23T22:23:23.640Z,10.50
2017-06-23T22:25:51.719Z,10.87
2017-06-23T22:28:19.789Z,11.90
2017-06-23T22:30:47.872Z,12.03
2017-06-23T22:33:15.943Z,10.90
2017-06-23T22:35:44.018Z,11.80
2017-06-23T22:38:12.859Z,12.03
2017-06-23T22:40:40.950Z,11.40
2017-06-23T22:43:09.023Z,10.60
2017-06-23T22:45:37.099Z,11.90
2017-06-23T22:48:05.174Z,12.27
2017-06-23T22:50:33.282Z,10.83
2017-06-23T22:53:01.362Z,11.07
2017-06-23T22:55:29.462Z,10.27
2017-06-23T22:57:57.543Z,11.13
2017-06-23T23:00:25.895Z,10.23
2017-06-23T23:02:53.986Z,10.73
2017-06-23T23:05:22.088Z,10.30
2017-06-23T23:07:50.134Z,9.57
2017-06-23T23:10:18.218Z,11.03
2017-06-23T23:12:46.303Z,10.53
2017-06-23T23:15:14.452Z,11.83
2017-06-23T23:17:42.505Z,10.93
2017-06-23T23:20:10.699Z,11.40
2017-06-23T23:22:38.754Z,10.90
2017-06-23T23:25:06.874Z,12.17
2017-06-23T23:27:34.946Z,10.80
2017-06-23T23:30:03.028Z,11.50
2017-06-23T23:32:31.112Z,11.17
2017-06-23T23:34:59.543Z,11.40
2017-06-23T23:37:27.618Z,12.40
2017-06-23T23:39:55.696Z,12.30
2017-06-23T23:42:23.783Z,12.17
2017-06-23T23:44:51.883Z,11.87
2017-06-23T23:47:19.977Z,12.00
2017-06-23T23:49:48.819Z,12.73
2017-06-23T23:52:16.895Z,11.77
2017-06-23T23:54:44.991Z,11.93
2017-06-23T23:57:13.192Z,11.00
2017-06-23T23:59:41.267Z,11.00
